createdAt,value
2023-02-07T00:00:11.355Z,41.17
2023-02-07T00:03:16.356Z,34.05
2023-02-07T00:06:19.930Z,40.90
2023-02-07T00:09:22.448Z,39.42
2023-02-07T00:12:24.454Z,39.50
2023-02-07T00:15:26.592Z,48.05
2023-02-07T00:18:28.573Z,44.45
2023-02-07T00:21:30.862Z,41.83
2023-02-07T00:24:33.221Z,38.58
2023-02-07T00:27:35.327Z,42.67
2023-02-07T00:30:37.348Z,42.10
2023-02-07T00:33:40.283Z,43.90
2023-02-07T00:36:44.700Z,42.72
2023-02-07T00:39:47.089Z,47.85
2023-02-07T00:42:49.082Z,48.27
2023-02-07T00:45:51.681Z,55.88
2023-02-07T00:48:54.084Z,45.60
2023-02-07T00:51:56.468Z,41.30
2023-02-07T00:54:58.810Z,45.17
2023-02-07T00:58:01.267Z,42.72
2023-02-07T01:01:03.545Z,43.67
2023-02-07T01:04:07.176Z,45.00
2023-02-07T01:07:09.314Z,52.28
2023-02-07T01:10:11.974Z,52.15
2023-02-07T01:13:15.606Z,51.77
2023-02-07T01:16:27.304Z,55.15
2023-02-07T01:19:29.250Z,48.70
2023-02-07T01:22:33.006Z,49.03
2023-02-07T01:25:35.459Z,41.63
2023-02-07T01:28:39.476Z,51.58
2023-02-07T01:31:42.504Z,48.70
2023-02-07T01:34:44.605Z,50.10
2023-02-07T01:37:46.558Z,51.33
2023-02-07T01:40:48.585Z,53.33
2023-02-07T01:43:54.527Z,45.43
2023-02-07T01:46:56.613Z,50.28
2023-02-07T01:49:59.887Z,45.05
2023-02-07T01:53:02.402Z,44.73
2023-02-07T01:56:07.029Z,56.67
2023-02-07T01:59:09.012Z,52.05
2023-02-07T02:02:11.274Z,53.03
2023-02-07T02:05:13.574Z,46.90
2023-02-07T02:08:15.912Z,55.85
2023-02-07T02:11:20.799Z,45.58
2023-02-07T02:14:22.748Z,53.60
2023-02-07T02:17:31.118Z,48.28
2023-02-07T02:20:36.567Z,49.25
2023-02-07T02:23:50.420Z,49.80
2023-02-07T02:26:52.384Z,46.33
2023-02-07T02:30:12.475Z,47.45
2023-02-07T02:33:17.284Z,40.17
2023-02-07T02:36:31.445Z,36.65
2023-02-07T02:39:36.417Z,38.45
2023-02-07T02:42:42.660Z,35.03
2023-02-07T02:46:05.371Z,43.77
2023-02-07T02:49:08.173Z,42.03
2023-02-07T02:52:10.714Z,34.88
2023-02-07T02:55:13.145Z,38.93
2023-02-07T02:58:21.330Z,41.47
2023-02-07T03:01:42.077Z,35.80
2023-02-07T03:04:56.903Z,33.33
2023-02-07T03:08:03.631Z,40.15
2023-02-07T03:11:08.107Z,36.72
2023-02-07T03:14:13.802Z,35.90
2023-02-07T03:17:25.387Z,42.07
2023-02-07T03:20:30.584Z,41.40
2023-02-07T03:23:33.151Z,38.75
2023-02-07T03:26:36.183Z,38.50
2023-02-07T03:29:39.571Z,44.53
2023-02-07T03:32:42.807Z,46.20
2023-02-07T03:35:49.370Z,39.03
2023-02-07T03:38:51.509Z,37.10
2023-02-07T03:41:54.657Z,39.35
2023-02-07T03:44:56.990Z,41.38
2023-02-07T03:47:59.246Z,37.07
2023-02-07T03:51:01.243Z,39.17
2023-02-07T03:54:03.957Z,36.67
2023-02-07T03:57:06.021Z,36.27
2023-02-07T04:00:08.400Z,39.15
2023-02-07T04:03:17.461Z,36.28
2023-02-07T04:06:19.711Z,45.83
2023-02-07T04:09:21.693Z,39.58
2023-02-07T04:12:23.822Z,35.80
2023-02-07T04:15:26.323Z,36.50
2023-02-07T04:18:28.684Z,33.97
2023-02-07T04:21:30.766Z,34.97
2023-02-07T04:24:32.734Z,37.75
2023-02-07T04:27:35.252Z,34.07
2023-02-07T04:30:37.637Z,36.00
2023-02-07T04:33:39.814Z,43.08
2023-02-07T04:36:41.839Z,30.52
2023-02-07T04:39:44.434Z,43.50
2023-02-07T04:42:46.893Z,41.15
2023-02-07T04:45:49.329Z,40.88
2023-02-07T04:48:55.141Z,34.33
2023-02-07T04:51:57.232Z,40.97
2023-02-07T04:54:59.306Z,40.22
2023-02-07T04:58:01.322Z,37.33
2023-02-07T05:01:03.542Z,40.03
2023-02-07T05:04:05.633Z,37.25
2023-02-07T05:07:07.678Z,40.33
2023-02-07T05:10:10.303Z,33.50
2023-02-07T05:13:12.849Z,33.17
2023-02-07T05:16:15.165Z,41.85
2023-02-07T05:19:17.698Z,37.17
2023-02-07T05:22:20.209Z,37.40
2023-02-07T05:25:22.201Z,46.90
2023-02-07T05:28:24.278Z,56.80
2023-02-07T05:31:46.499Z,55.67
2023-02-07T05:34:48.599Z,57.13
2023-02-07T05:37:50.826Z,51.88
2023-02-07T05:40:53.447Z,47.60
2023-02-07T05:43:55.644Z,47.88
2023-02-07T05:47:00.223Z,45.75
2023-02-07T05:50:04.114Z,43.23
2023-02-07T05:53:06.895Z,46.13
2023-02-07T05:56:08.945Z,48.25
2023-02-07T05:59:11.445Z,44.00
2023-02-07T06:02:13.925Z,49.85
2023-02-07T06:05:16.931Z,41.40
2023-02-07T06:08:19.261Z,40.45
2023-02-07T06:11:21.782Z,41.78
2023-02-07T06:14:24.332Z,46.17
2023-02-07T06:17:26.764Z,37.45
2023-02-07T06:20:28.916Z,41.77
2023-02-07T06:23:31.273Z,48.88
2023-02-07T06:26:33.407Z,41.25
2023-02-07T06:29:35.980Z,41.57
2023-02-07T06:32:38.494Z,43.83
2023-02-07T06:35:47.223Z,42.97
2023-02-07T06:38:49.817Z,50.00
2023-02-07T06:41:51.933Z,72.35
2023-02-07T06:44:54.252Z,85.93
2023-02-07T06:47:56.419Z,94.38
2023-02-07T06:50:58.570Z,118.37
2023-02-07T06:54:03.392Z,129.57
2023-02-07T06:57:05.775Z,183.00
2023-02-07T07:00:11.689Z,139.67
2023-02-07T07:03:14.708Z,118.25
2023-02-07T07:06:16.752Z,75.95
2023-02-07T07:09:19.262Z,50.00
2023-02-07T07:12:21.904Z,56.80
2023-02-07T07:15:24.924Z,68.75
2023-02-07T07:18:27.104Z,62.53
2023-02-07T07:21:29.580Z,58.57
2023-02-07T07:24:31.751Z,56.88
2023-02-07T07:27:34.290Z,57.88
2023-02-07T07:30:36.771Z,48.50
2023-02-07T07:33:39.866Z,64.93
2023-02-07T07:36:42.200Z,62.83
2023-02-07T07:39:44.706Z,49.58
2023-02-07T07:42:47.378Z,48.47
2023-02-07T07:46:04.737Z,47.63
2023-02-07T07:49:06.782Z,43.72
2023-02-07T07:52:08.758Z,45.20
2023-02-07T07:55:11.325Z,47.25
2023-02-07T07:58:14.182Z,48.65
2023-02-07T08:01:16.816Z,41.17
2023-02-07T08:04:19.294Z,43.65
2023-02-07T08:07:21.356Z,30.73
2023-02-07T08:10:23.957Z,39.47
2023-02-07T08:13:29.565Z,32.28
2023-02-07T08:16:31.777Z,30.40
2023-02-07T08:19:34.685Z,35.42
2023-02-07T08:22:36.887Z,25.93
2023-02-07T08:25:39.144Z,39.00
2023-02-07T08:28:41.737Z,34.65
2023-02-07T08:31:43.717Z,32.27
2023-02-07T08:34:46.430Z,31.23
2023-02-07T08:37:48.624Z,30.67
2023-02-07T08:40:51.800Z,28.27
2023-02-07T08:43:53.848Z,36.92
2023-02-07T08:46:55.921Z,27.45
2023-02-07T08:49:58.047Z,33.78
2023-02-07T08:53:00.598Z,37.53
2023-02-07T08:56:02.652Z,33.47
2023-02-07T08:59:05.027Z,30.98
2023-02-07T09:02:07.541Z,27.93
2023-02-07T09:05:10.472Z,32.65
2023-02-07T09:08:12.514Z,30.20
2023-02-07T09:11:15.637Z,31.30
2023-02-07T09:14:17.863Z,28.30
2023-02-07T09:17:20.031Z,25.77
2023-02-07T09:20:22.085Z,27.27
2023-02-07T09:23:24.344Z,27.40
2023-02-07T09:26:26.915Z,29.88
2023-02-07T09:29:29.085Z,26.13
2023-02-07T09:32:31.544Z,26.90
2023-02-07T09:35:38.756Z,25.50
2023-02-07T09:38:40.778Z,19.08
2023-02-07T09:41:52.830Z,21.70
2023-02-07T09:44:54.978Z,24.88
2023-02-07T09:48:02.215Z,24.00
2023-02-07T09:51:04.672Z,27.40
2023-02-07T09:54:27.565Z,20.63
2023-02-07T09:57:37.857Z,25.85
2023-02-07T10:00:40.828Z,35.60
2023-02-07T10:03:49.498Z,30.67
2023-02-07T10:06:53.454Z,31.55
2023-02-07T10:09:58.051Z,27.05
2023-02-07T10:13:07.468Z,22.33
2023-02-07T10:16:26.054Z,25.80
2023-02-07T10:19:37.170Z,24.70
2023-02-07T10:22:42.626Z,20.33
2023-02-07T10:25:51.789Z,25.00
2023-02-07T10:28:57.360Z,21.67
2023-02-07T10:32:00.016Z,17.63
2023-02-07T10:35:03.943Z,18.87
2023-02-07T10:38:11.673Z,15.27
2023-02-07T10:41:15.906Z,13.77
2023-02-07T10:44:20.708Z,35.97
2023-02-07T10:47:23.451Z,17.00
2023-02-07T10:50:30.124Z,20.50
2023-02-07T10:54:02.770Z,23.42
2023-02-07T10:57:05.263Z,14.97
2023-02-07T11:00:26.178Z,16.17
2023-02-07T11:03:28.317Z,12.77
2023-02-07T11:06:32.126Z,14.53
2023-02-07T11:09:37.948Z,16.77
2023-02-07T11:12:54.732Z,18.55
2023-02-07T11:15:58.747Z,15.27
2023-02-07T11:19:07.298Z,22.35
2023-02-07T11:22:10.350Z,20.38
2023-02-07T11:25:12.882Z,23.33
2023-02-07T11:28:33.140Z,18.77
2023-02-07T11:31:36.128Z,24.02
2023-02-07T11:34:42.816Z,24.10
2023-02-07T11:37:48.942Z,22.43
2023-02-07T11:40:52.441Z,25.20
2023-02-07T11:43:56.022Z,24.33
2023-02-07T11:46:59.418Z,24.05
2023-02-07T11:50:02.105Z,22.77
2023-02-07T11:53:04.776Z,25.65
2023-02-07T11:56:07.936Z,31.77
2023-02-07T11:59:15.585Z,29.07
2023-02-07T12:02:20.945Z,25.30
2023-02-07T12:05:24.282Z,21.38
2023-02-07T12:08:27.715Z,22.43
2023-02-07T12:11:34.030Z,21.83
2023-02-07T12:14:37.565Z,21.52
2023-02-07T12:17:52.625Z,29.40
2023-02-07T12:21:13.013Z,27.98
2023-02-07T12:24:17.211Z,26.85
2023-02-07T12:27:19.839Z,26.42
2023-02-07T12:30:32.089Z,26.23
2023-02-07T12:33:41.602Z,30.95
2023-02-07T12:36:46.383Z,32.65
2023-02-07T12:39:49.803Z,84.10
2023-02-07T12:42:54.555Z,38.05
2023-02-07T12:46:00.585Z,21.83
2023-02-07T12:49:11.559Z,26.67
2023-02-07T12:52:20.641Z,22.38
2023-02-07T12:55:23.143Z,21.42
2023-02-07T12:58:35.648Z,27.83
2023-02-07T13:01:40.123Z,23.20
2023-02-07T13:05:01.484Z,26.52
2023-02-07T13:08:03.475Z,20.63
2023-02-07T13:11:26.525Z,22.07
2023-02-07T13:14:28.583Z,24.17
2023-02-07T13:17:39.740Z,25.85
2023-02-07T13:20:51.304Z,24.60
2023-02-07T13:23:53.390Z,26.95
2023-02-07T13:26:57.245Z,27.63
2023-02-07T13:30:02.662Z,26.45
2023-02-07T13:33:41.071Z,22.13
2023-02-07T13:36:44.477Z,24.70
2023-02-07T13:40:02.614Z,21.67
2023-02-07T13:43:05.878Z,24.37
2023-02-07T13:46:12.537Z,27.95
2023-02-07T13:49:16.538Z,28.48
2023-02-07T13:52:33.690Z,25.10
2023-02-07T13:55:39.737Z,22.35
2023-02-07T13:59:00.614Z,28.42
2023-02-07T14:02:20.229Z,22.45
2023-02-07T14:05:28.039Z,28.83
2023-02-07T14:08:30.236Z,22.30
2023-02-07T14:11:34.612Z,21.58
2023-02-07T14:14:39.339Z,20.53
2023-02-07T14:17:44.318Z,21.08
2023-02-07T14:20:47.146Z,22.55
2023-02-07T14:23:49.764Z,23.67
2023-02-07T14:26:56.513Z,26.05
2023-02-07T14:30:02.086Z,23.05
2023-02-07T14:33:12.367Z,22.60
2023-02-07T14:36:14.559Z,25.10
2023-02-07T14:39:21.547Z,21.15
2023-02-07T14:42:24.103Z,21.15
2023-02-07T14:45:28.546Z,25.70
2023-02-07T14:48:34.218Z,22.15
2023-02-07T14:51:47.201Z,26.58
2023-02-07T14:54:58.064Z,26.13
2023-02-07T14:58:00.303Z,45.92
2023-02-07T15:01:02.464Z,32.25
2023-02-07T15:04:06.390Z,26.55
2023-02-07T15:07:11.281Z,29.33
2023-02-07T15:10:22.789Z,38.17
2023-02-07T15:13:25.203Z,38.78
2023-02-07T15:16:28.573Z,28.20
2023-02-07T15:19:33.949Z,208.63
2023-02-07T15:22:36.422Z,50.75
2023-02-07T15:25:39.971Z,25.83
2023-02-07T15:28:42.697Z,31.67
2023-02-07T15:31:45.331Z,30.60
2023-02-07T15:34:47.485Z,27.02
2023-02-07T15:37:50.113Z,30.13
2023-02-07T15:40:52.532Z,28.90
2023-02-07T15:43:59.617Z,25.42
2023-02-07T15:47:05.520Z,30.20
2023-02-07T15:50:25.253Z,28.90
2023-02-07T15:53:28.246Z,27.95
2023-02-07T15:56:30.568Z,31.17
2023-02-07T15:59:33.700Z,36.13
2023-02-07T16:02:36.379Z,32.97
2023-02-07T16:05:38.874Z,38.35
2023-02-07T16:08:41.762Z,35.65
2023-02-07T16:11:43.758Z,29.35
2023-02-07T16:14:46.092Z,35.88
2023-02-07T16:17:48.102Z,39.72
2023-02-07T16:20:50.569Z,41.27
2023-02-07T16:23:57.995Z,43.70
2023-02-07T16:27:11.280Z,37.67
2023-02-07T16:30:19.960Z,44.47
2023-02-07T16:33:22.182Z,58.45
2023-02-07T16:36:26.839Z,53.45
2023-02-07T16:39:29.386Z,50.00
2023-02-07T16:42:37.455Z,46.40
2023-02-07T16:45:40.211Z,53.15
2023-02-07T16:48:42.865Z,43.00
2023-02-07T16:51:46.568Z,52.70
2023-02-07T16:54:49.660Z,55.70
2023-02-07T16:57:53.389Z,45.55
2023-02-07T17:00:55.977Z,58.47
2023-02-07T17:04:03.490Z,44.45
2023-02-07T17:07:12.921Z,51.22
2023-02-07T17:10:27.752Z,51.60
2023-02-07T17:13:33.845Z,49.83
2023-02-07T17:16:40.911Z,53.70
2023-02-07T17:19:47.432Z,52.88
2023-02-07T17:22:52.481Z,57.40
2023-02-07T17:25:54.919Z,60.72
2023-02-07T17:29:02.538Z,58.28
2023-02-07T17:32:15.195Z,66.13
2023-02-07T17:35:17.593Z,55.17
2023-02-07T17:38:20.129Z,54.90
2023-02-07T17:41:22.246Z,64.45
2023-02-07T17:44:25.289Z,86.60
2023-02-07T17:47:27.610Z,67.60
2023-02-07T17:50:33.312Z,66.10
2023-02-07T17:53:35.880Z,78.60
2023-02-07T17:56:38.325Z,105.28
2023-02-07T17:59:40.464Z,151.07
2023-02-07T18:02:42.892Z,156.90
2023-02-07T18:05:45.043Z,196.85
2023-02-07T18:08:47.007Z,153.60
2023-02-07T18:11:49.098Z,122.97
2023-02-07T18:14:52.483Z,111.63
2023-02-07T18:17:54.491Z,96.78
2023-02-07T18:20:57.219Z,84.15
2023-02-07T18:23:59.759Z,88.33
2023-02-07T18:27:02.319Z,89.60
2023-02-07T18:30:05.190Z,105.20
2023-02-07T18:33:07.175Z,120.87
2023-02-07T18:36:09.423Z,102.18
2023-02-07T18:39:12.658Z,95.15
2023-02-07T18:42:17.615Z,150.73
2023-02-07T18:45:19.738Z,149.95
2023-02-07T18:48:22.283Z,129.00
2023-02-07T18:51:24.460Z,107.95
2023-02-07T18:54:26.982Z,86.13
2023-02-07T18:57:29.123Z,91.10
2023-02-07T19:00:31.575Z,94.90
2023-02-07T19:03:33.974Z,100.13
2023-02-07T19:06:35.987Z,99.25
2023-02-07T19:09:38.403Z,105.88
2023-02-07T19:12:40.448Z,110.68
2023-02-07T19:15:42.491Z,116.43
2023-02-07T19:18:44.840Z,118.40
2023-02-07T19:21:46.904Z,104.75
2023-02-07T19:24:49.054Z,113.97
2023-02-07T19:27:51.061Z,122.30
2023-02-07T19:30:53.636Z,115.65
2023-02-07T19:33:56.117Z,123.00
2023-02-07T19:36:58.233Z,134.88
2023-02-07T19:40:00.369Z,129.63
2023-02-07T19:43:02.917Z,116.60
2023-02-07T19:46:05.476Z,119.68
2023-02-07T19:49:07.625Z,115.75
2023-02-07T19:52:10.226Z,115.38
2023-02-07T19:55:12.284Z,113.63
2023-02-07T19:58:14.449Z,110.72
2023-02-07T20:01:16.644Z,118.70
2023-02-07T20:04:19.083Z,123.00
2023-02-07T20:07:22.303Z,130.73
2023-02-07T20:10:24.386Z,106.85
2023-02-07T20:13:26.598Z,112.72
2023-02-07T20:16:29.118Z,111.10
2023-02-07T20:19:31.313Z,103.65
2023-02-07T20:22:34.977Z,108.75
2023-02-07T20:25:37.783Z,112.43
2023-02-07T20:28:39.786Z,114.10
2023-02-07T20:31:42.469Z,99.75
2023-02-07T20:34:44.451Z,108.90
2023-02-07T20:37:46.827Z,105.70
2023-02-07T20:40:48.925Z,103.68
2023-02-07T20:43:50.837Z,104.45
2023-02-07T20:46:53.422Z,109.57
2023-02-07T20:49:57.513Z,104.18
2023-02-07T20:52:59.652Z,96.10
2023-02-07T20:56:05.864Z,113.67
2023-02-07T20:59:07.958Z,109.70
2023-02-07T21:02:10.283Z,116.55
2023-02-07T21:05:12.300Z,122.43
2023-02-07T21:08:14.366Z,128.05
2023-02-07T21:11:17.068Z,110.30
2023-02-07T21:14:19.856Z,113.78
2023-02-07T21:17:21.942Z,135.95
2023-02-07T21:20:23.905Z,116.10
2023-02-07T21:23:26.003Z,113.00
2023-02-07T21:26:28.206Z,120.77
2023-02-07T21:29:30.285Z,100.85
2023-02-07T21:32:32.300Z,104.03
2023-02-07T21:35:34.337Z,95.87
2023-02-07T21:38:36.594Z,97.28
2023-02-07T21:41:39.549Z,97.85
2023-02-07T21:44:41.680Z,91.40
2023-02-07T21:47:43.642Z,92.10
2023-02-07T21:50:45.592Z,98.03
2023-02-07T21:53:51.212Z,97.75
2023-02-07T21:56:53.336Z,104.20
2023-02-07T21:59:55.262Z,98.30
2023-02-07T22:02:57.407Z,99.55
2023-02-07T22:05:59.332Z,94.27
2023-02-07T22:09:01.862Z,103.85
2023-02-07T22:12:03.910Z,100.50
2023-02-07T22:15:06.167Z,103.40
2023-02-07T22:18:08.133Z,88.18
2023-02-07T22:21:13.577Z,69.25
2023-02-07T22:24:15.956Z,74.90
2023-02-07T22:27:18.013Z,74.07
2023-02-07T22:30:20.359Z,73.30
2023-02-07T22:33:22.488Z,74.75
2023-02-07T22:36:25.247Z,79.07
2023-02-07T22:39:27.245Z,62.25
2023-02-07T22:42:29.545Z,61.08
2023-02-07T22:45:32.153Z,65.13
2023-02-07T22:48:34.098Z,66.65
2023-02-07T22:51:36.971Z,71.00
2023-02-07T22:54:38.901Z,66.00
2023-02-07T22:57:41.372Z,77.13
2023-02-07T23:00:43.330Z,77.68
2023-02-07T23:03:45.456Z,68.93
2023-02-07T23:06:47.485Z,59.80
2023-02-07T23:09:49.674Z,65.10
2023-02-07T23:12:52.264Z,63.30
2023-02-07T23:15:54.479Z,64.00
2023-02-07T23:18:57.010Z,63.17
2023-02-07T23:21:59.733Z,60.88
2023-02-07T23:25:02.123Z,57.90
2023-02-07T23:28:04.726Z,58.30
2023-02-07T23:31:07.644Z,66.05
2023-02-07T23:34:09.857Z,60.85
2023-02-07T23:37:11.867Z,49.73
2023-02-07T23:40:14.379Z,56.35
2023-02-07T23:43:16.783Z,57.15
2023-02-07T23:46:19.224Z,49.75
2023-02-07T23:49:21.257Z,59.35
2023-02-07T23:52:23.362Z,57.75
2023-02-07T23:55:25.325Z,54.30
2023-02-07T23:58:27.466Z,53.20
